Time;durP1;ratioP1;P1;durP2;ratioP2;P2;SDS_P1;SDS_P2;PMS_P1;PMS_P2;Temp;Humidity;BMP_temperature;BMP_pressure;BME280_temperature;BME280_humidity;BME280_pressure;Samples;Min_cycle;Max_cycle;Signal;HPM_P1;HPM_P2
2022/07/26 00:00:05;;;;;;;4.65;3.45;;;;;;;19.92;69.21;98300.88;4201535;28;20285;-72
2022/07/26 00:02:05;;;;;;;4.70;3.70;;;;;;;19.91;69.10;98297.28;4201354;28;20027;-72
2022/07/26 00:04:06;;;;;;;5.32;3.72;;;;;;;19.83;69.46;98290.28;4201417;28;20286;-72
2022/07/26 00:06:07;;;;;;;4.63;3.55;;;;;;;19.78;70.03;98306.91;4202637;28;20383;-72
2022/07/26 00:08:10;;;;;;;5.13;3.25;;;;;;;19.75;69.08;98305.75;4201297;28;20402;-72
2022/07/26 00:10:11;;;;;;;6.28;3.33;;;;;;;19.69;69.42;98301.91;4200499;28;20031;-72
2022/07/26 00:12:11;;;;;;;5.22;4.00;;;;;;;19.53;68.86;98305.53;4199731;28;20028;-72
2022/07/26 00:14:12;;;;;;;6.50;3.30;;;;;;;19.46;68.51;98311.34;4202633;28;20040;-72
2022/07/26 00:16:12;;;;;;;4.28;3.15;;;;;;;19.44;68.75;98313.00;4201164;28;20032;-72
2022/07/26 00:18:14;;;;;;;3.97;2.90;;;;;;;19.41;68.19;98320.28;4201677;28;20027;-72
2022/07/26 00:20:14;;;;;;;5.00;2.97;;;;;;;19.35;67.81;98313.63;4201366;28;20040;-72
2022/07/26 00:22:33;;;;;;;6.82;3.33;;;;;;;19.28;67.90;98316.63;4198993;28;20032;-72
2022/07/26 00:24:33;;;;;;;4.75;3.03;;;;;;;19.25;67.86;98309.09;4201342;28;20059;-72
2022/07/26 00:26:33;;;;;;;8.27;3.63;;;;;;;19.21;68.02;98309.19;4201787;28;20071;-72
2022/07/26 00:28:34;;;;;;;12.80;3.55;;;;;;;19.16;67.63;98311.72;4201072;28;20070;-72
2022/07/26 00:30:34;;;;;;;5.03;2.90;;;;;;;19.12;67.42;98311.06;4200312;28;20310;-72
2022/07/26 00:32:36;;;;;;;6.18;3.40;;;;;;;19.07;67.52;98303.94;4200851;28;20399;-72
2022/07/26 00:34:36;;;;;;;6.35;2.75;;;;;;;19.04;67.24;98311.22;4201776;28;20279;-72
2022/07/26 00:36:36;;;;;;;6.00;2.92;;;;;;;19.11;66.52;98309.44;4201457;28;20036;-72
2022/07/26 00:38:37;;;;;;;5.47;3.05;;;;;;;19.03;66.68;98309.66;4201461;28;20123;-72
2022/07/26 00:40:38;;;;;;;5.18;2.70;;;;;;;19.07;66.36;98310.34;4202281;28;20040;-72
2022/07/26 00:42:38;;;;;;;5.15;2.95;;;;;;;19.12;66.40;98316.66;4200635;28;20050;-72
2022/07/26 00:44:40;;;;;;;4.32;3.47;;;;;;;19.00;66.90;98313.31;4200593;28;20054;-72
2022/07/26 00:46:42;;;;;;;4.95;2.90;;;;;;;18.96;67.14;98311.84;4201426;28;20456;-72
2022/07/26 00:48:42;;;;;;;4.10;2.80;;;;;;;18.92;67.26;98305.53;4199814;28;20051;-72
2022/07/26 00:50:43;;;;;;;4.68;2.85;;;;;;;18.83;67.55;98306.13;4201938;28;20391;-72
2022/07/26 00:52:45;;;;;;;6.38;3.30;;;;;;;18.82;67.56;98312.97;4200562;28;20490;-72
2022/07/26 00:54:46;;;;;;;4.38;3.03;;;;;;;18.78;67.79;98309.44;4201897;28;20043;-72
2022/07/26 00:56:47;;;;;;;4.55;3.60;;;;;;;18.75;68.25;98311.13;4203910;28;20036;-72
2022/07/26 00:58:47;;;;;;;4.75;3.08;;;;;;;18.71;68.11;98310.44;4204137;28;20044;-72
2022/07/26 01:00:47;;;;;;;8.88;2.95;;;;;;;18.65;68.85;98311.34;4204526;28;20040;-72
2022/07/26 01:02:49;;;;;;;7.38;3.08;;;;;;;18.61;68.95;98310.63;4202668;28;20515;-72
2022/07/26 01:04:49;;;;;;;4.35;2.97;;;;;;;18.53;69.03;98315.63;4203764;28;20044;-72
2022/07/26 01:06:49;;;;;;;4.75;3.13;;;;;;;18.52;69.03;98322.44;4204306;28;20189;-72
2022/07/26 01:08:50;;;;;;;5.70;3.15;;;;;;;18.48;69.05;98322.53;4204101;28;20047;-72
2022/07/26 01:10:52;;;;;;;5.53;3.13;;;;;;;18.44;69.21;98321.81;4203588;28;20410;-72
2022/07/26 01:12:52;;;;;;;5.53;2.90;;;;;;;18.41;69.17;98327.50;4202061;28;20052;-72
2022/07/26 01:14:52;;;;;;;5.70;2.92;;;;;;;18.37;69.51;98321.19;4204569;28;20325;-72
2022/07/26 01:16:53;;;;;;;5.03;3.10;;;;;;;18.28;69.84;98335.00;4201800;28;20048;-72
2022/07/26 01:18:53;;;;;;;8.07;3.08;;;;;;;18.29;69.96;98336.56;4203573;28;20032;-72
2022/07/26 01:20:56;;;;;;;5.25;3.08;;;;;;;18.28;69.67;98321.78;4203315;28;20478;-72
2022/07/26 01:22:56;;;;;;;7.07;3.20;;;;;;;18.23;69.83;98339.09;4203404;28;20048;-72
2022/07/26 01:24:57;;;;;;;7.75;2.97;;;;;;;18.16;70.29;98336.47;4203728;28;20050;-72
2022/07/26 01:26:57;;;;;;;8.68;4.30;;;;;;;18.09;70.40;98333.81;4203781;28;20052;-72
2022/07/26 01:28:58;;;;;;;6.68;3.47;;;;;;;18.07;70.19;98325.06;4202269;28;20028;-72
2022/07/26 01:30:58;;;;;;;6.20;3.20;;;;;;;18.08;70.15;98326.63;4202768;28;20078;-71
2022/07/26 01:32:59;;;;;;;7.45;3.08;;;;;;;17.99;70.78;98327.22;4203359;28;20110;-71
2022/07/26 01:34:59;;;;;;;10.27;3.50;;;;;;;17.95;71.03;98324.47;4204171;28;20071;-72
2022/07/26 01:37:00;;;;;;;10.45;3.50;;;;;;;17.92;71.14;98325.34;4201298;28;20092;-72
2022/07/26 01:39:00;;;;;;;9.63;3.53;;;;;;;17.88;71.03;98324.63;4203088;28;20047;-72
2022/07/26 01:41:01;;;;;;;14.00;3.50;;;;;;;17.88;71.17;98315.44;4204154;28;20040;-72
2022/07/26 01:43:01;;;;;;;13.63;3.78;;;;;;;17.88;71.42;98323.84;4203371;28;20541;-72
2022/07/26 01:45:02;;;;;;;4.78;3.47;;;;;;;17.83;71.60;98319.53;4202628;28;20043;-72
2022/07/26 01:47:02;;;;;;;9.57;3.30;;;;;;;17.78;71.98;98311.63;4204223;28;20105;-72
2022/07/26 01:49:03;;;;;;;8.38;3.70;;;;;;;17.75;71.71;98317.31;4201332;28;20282;-72
2022/07/26 01:51:04;;;;;;;7.18;3.92;;;;;;;17.71;71.76;98317.38;4203100;28;20055;-72
2022/07/26 01:53:04;;;;;;;7.90;3.60;;;;;;;17.64;72.29;98323.88;4202478;28;20032;-72
2022/07/26 01:55:05;;;;;;;6.20;2.92;;;;;;;17.56;72.51;98321.66;4203947;28;20056;-72
2022/07/26 01:57:05;;;;;;;6.03;3.55;;;;;;;17.52;72.59;98321.69;4202763;28;20048;-72
2022/07/26 01:59:06;;;;;;;6.20;3.15;;;;;;;17.48;72.69;98315.41;4202633;28;20035;-72
2022/07/26 02:01:07;;;;;;;4.88;3.53;;;;;;;17.41;73.52;98316.31;4202744;28;20151;-72
2022/07/26 02:03:08;;;;;;;7.35;2.75;;;;;;;17.35;73.46;98320.03;4202431;28;20484;-72
2022/07/26 02:05:08;;;;;;;3.55;3.05;;;;;;;17.32;73.43;98324.47;4203399;28;20054;-72
2022/07/26 02:07:10;;;;;;;4.47;2.90;;;;;;;17.28;73.94;98320.16;4202368;28;20726;-71
2022/07/26 02:09:10;;;;;;;6.10;3.30;;;;;;;17.20;74.14;98319.47;4201424;28;20047;-71
2022/07/26 02:11:11;;;;;;;6.43;3.75;;;;;;;17.20;74.49;98321.50;4202837;28;20036;-72
2022/07/26 02:13:13;;;;;;;4.43;3.20;;;;;;;17.13;74.52;98312.03;4202233;28;20044;-71
2022/07/26 02:15:13;;;;;;;7.07;3.80;;;;;;;17.13;74.25;98319.63;4203978;28;20431;-71
2022/07/26 02:17:15;;;;;;;6.55;3.15;;;;;;;17.08;74.92;98317.31;4202190;28;20044;-71
2022/07/26 02:19:15;;;;;;;5.38;4.07;;;;;;;17.04;75.49;98314.56;4201611;28;20054;-72
2022/07/26 02:21:15;;;;;;;6.53;3.53;;;;;;;16.93;75.95;98318.75;4203130;28;20127;-72
2022/07/26 02:23:16;;;;;;;7.50;3.72;;;;;;;16.89;75.47;98316.03;4201544;28;20048;-72
2022/07/26 02:25:16;;;;;;;7.38;3.42;;;;;;;16.86;75.30;98311.28;4203669;28;20483;-72
2022/07/26 02:27:17;;;;;;;7.47;3.80;;;;;;;16.89;74.94;98309.66;4202904;28;20384;-70
2022/07/26 02:29:17;;;;;;;7.10;3.40;;;;;;;16.88;75.02;98313.63;4202770;28;20214;-71
2022/07/26 02:31:18;;;;;;;6.50;3.72;;;;;;;16.87;74.80;98312.06;4201282;28;20305;-71
2022/07/26 02:33:19;;;;;;;8.93;4.07;;;;;;;16.82;75.55;98308.56;4201643;28;20082;-71
2022/07/26 02:35:19;;;;;;;3.95;3.30;;;;;;;16.76;76.42;98306.66;4203734;28;20893;-71
2022/07/26 02:37:19;;;;;;;5.78;3.35;;;;;;;16.68;76.52;98305.94;4202394;28;20044;-71
2022/07/26 02:39:26;;;;;;;7.90;3.58;;;;;;;16.67;76.29;98307.16;4201612;28;20046;-71
2022/07/26 02:41:26;;;;;;;6.45;4.25;;;;;;;16.63;77.62;98308.41;4202054;28;20102;-70
2022/07/26 02:43:29;;;;;;;7.40;3.72;;;;;;;16.63;77.68;98314.00;4202610;28;20047;-71
2022/07/26 02:45:29;;;;;;;11.15;4.35;;;;;;;16.57;78.84;98314.50;4202614;28;20104;-71
2022/07/26 02:47:31;;;;;;;6.70;3.85;;;;;;;16.56;78.34;98317.72;4200761;28;20051;-71
2022/07/26 02:49:32;;;;;;;5.75;3.60;;;;;;;16.56;78.07;98312.94;4202490;28;20052;-71
2022/07/26 02:51:32;;;;;;;7.32;3.70;;;;;;;16.57;77.51;98302.53;4202849;28;20410;-71
2022/07/26 02:53:32;;;;;;;5.43;3.22;;;;;;;16.57;77.57;98299.75;4201665;28;20488;-71
2022/07/26 02:55:33;;;;;;;5.50;3.60;;;;;;;16.56;78.39;98300.97;4202175;28;20040;-71
2022/07/26 02:57:33;;;;;;;5.95;3.90;;;;;;;16.51;79.28;98305.00;4201655;28;20040;-71
2022/07/26 02:59:33;;;;;;;6.20;3.50;;;;;;;16.48;79.45;98302.28;4201175;28;20435;-71
2022/07/26 03:01:34;;;;;;;6.32;4.00;;;;;;;16.46;79.08;98291.50;4201555;28;20550;-71
2022/07/26 03:03:34;;;;;;;6.75;4.00;;;;;;;16.49;78.32;98299.06;4201156;28;20071;-71
2022/07/26 03:05:34;;;;;;;5.22;3.80;;;;;;;16.49;78.25;98299.06;4202907;28;20131;-71
2022/07/26 03:07:35;;;;;;;4.20;3.60;;;;;;;16.48;78.48;98299.50;4201807;28;20080;-71
2022/07/26 03:09:35;;;;;;;6.57;4.13;;;;;;;16.46;78.65;98302.69;4200255;28;20283;-71
2022/07/26 03:11:36;;;;;;;6.82;4.00;;;;;;;16.46;78.71;98296.31;4201129;28;20101;-71
2022/07/26 03:13:36;;;;;;;5.93;3.90;;;;;;;16.45;78.46;98292.72;4201447;28;20123;-71
2022/07/26 03:15:36;;;;;;;10.07;4.32;;;;;;;16.43;78.66;98299.94;4202511;28;20476;-70
2022/07/26 03:17:37;;;;;;;5.47;3.80;;;;;;;16.46;77.92;98290.72;4201867;28;20033;-71
2022/07/26 03:19:38;;;;;;;4.47;3.47;;;;;;;16.50;77.40;98280.31;4200224;28;20435;-71
2022/07/26 03:21:38;;;;;;;4.15;3.53;;;;;;;16.55;76.75;98291.78;4201609;28;20043;-71
2022/07/26 03:23:38;;;;;;;7.43;3.60;;;;;;;16.57;76.89;98286.56;4202132;28;20684;-71
2022/07/26 03:25:39;;;;;;;6.93;4.00;;;;;;;16.61;76.86;98294.09;4201829;28;20052;-71
2022/07/26 03:27:39;;;;;;;5.43;3.60;;;;;;;16.61;76.97;98294.09;4201760;28;20044;-71
2022/07/26 03:29:40;;;;;;;4.50;3.47;;;;;;;16.56;77.28;98296.16;4199688;28;20056;-70
2022/07/26 03:31:40;;;;;;;8.40;3.97;;;;;;;16.51;77.82;98305.00;4201231;28;20044;-71
2022/07/26 03:33:41;;;;;;;11.52;4.50;;;;;;;16.50;79.01;98308.22;4201786;28;20159;-71
2022/07/26 03:35:41;;;;;;;4.53;3.72;;;;;;;16.45;78.88;98291.94;4202046;28;20036;-71
2022/07/26 03:37:42;;;;;;;5.18;3.60;;;;;;;16.45;77.85;98301.09;4202985;28;20580;-71
2022/07/26 03:39:42;;;;;;;4.75;3.25;;;;;;;16.46;77.47;98294.31;4200815;28;20442;-70
2022/07/26 03:41:43;;;;;;;5.57;3.28;;;;;;;16.51;78.45;98301.44;4201707;28;20047;-70
2022/07/26 03:43:43;;;;;;;5.75;3.50;;;;;;;16.49;77.72;98298.28;4199600;28;20035;-70
2022/07/26 03:45:44;;;;;;;6.28;4.20;;;;;;;16.49;77.92;98301.84;4203218;28;20357;-70
2022/07/26 03:47:45;;;;;;;8.13;3.40;;;;;;;16.44;78.14;98296.72;4201466;28;20043;-70
2022/07/26 03:49:45;;;;;;;7.32;3.22;;;;;;;16.43;77.94;98311.13;4200665;28;20412;-71
2022/07/26 03:51:46;;;;;;;5.90;3.47;;;;;;;16.40;78.44;98303.59;4201639;28;20127;-71
2022/07/26 03:53:46;;;;;;;8.60;3.72;;;;;;;16.36;78.62;98305.63;4200696;28;20036;-71
2022/07/26 03:58:06;;;;;;;5.63;3.60;;;;;;;16.34;78.65;98305.28;4200929;28;20391;-71
2022/07/26 04:00:07;;;;;;;7.20;3.47;;;;;;;16.31;78.50;98306.91;4200504;28;20032;-71
2022/07/26 04:02:07;;;;;;;9.32;4.07;;;;;;;16.29;78.96;98307.31;4201308;28;20176;-71
2022/07/26 04:04:09;;;;;;;7.55;3.75;;;;;;;16.26;78.73;98302.56;4201349;28;20341;-71
2022/07/26 04:06:09;;;;;;;5.63;3.10;;;;;;;16.28;78.49;98311.31;4200602;28;20039;-71
2022/07/26 04:08:09;;;;;;;6.28;3.75;;;;;;;16.31;78.30;98312.50;4200054;28;20360;-71
2022/07/26 04:10:11;;;;;;;5.18;3.40;;;;;;;16.30;78.55;98308.09;4201866;28;20040;-71
2022/07/26 04:12:11;;;;;;;9.30;3.42;;;;;;;16.28;78.49;98316.13;4200840;28;20028;-71
2022/07/26 04:14:11;;;;;;;6.40;3.53;;;;;;;16.31;78.01;98317.28;4200165;28;20269;-72
2022/07/26 04:16:12;;;;;;;5.38;3.40;;;;;;;16.30;77.99;98324.84;4201546;28;20416;-72
2022/07/26 04:18:13;;;;;;;9.45;3.42;;;;;;;16.35;77.49;98324.38;4200549;28;20028;-72
2022/07/26 04:20:13;;;;;;;5.22;3.40;;;;;;;16.35;77.08;98327.19;4201183;28;20020;-72
2022/07/26 04:22:14;;;;;;;4.68;3.15;;;;;;;16.39;77.27;98338.31;4201737;28;20176;-72
2022/07/26 04:24:14;;;;;;;7.97;3.30;;;;;;;16.42;76.92;98337.47;4200719;28;20024;-71
2022/07/26 04:26:15;;;;;;;4.80;2.83;;;;;;;16.45;76.79;98334.59;4201336;28;20267;-72
2022/07/26 04:28:15;;;;;;;5.45;3.20;;;;;;;16.47;76.58;98345.38;4201325;28;20119;-72
2022/07/26 04:30:16;;;;;;;5.60;2.80;;;;;;;16.48;76.45;98347.75;4201863;27;20055;-72
2022/07/26 04:32:16;;;;;;;3.72;2.70;;;;;;;16.51;76.35;98346.91;4203827;28;20034;-72
2022/07/26 04:34:16;;;;;;;6.15;2.85;;;;;;;16.53;76.42;98343.69;4203889;28;20055;-72
2022/07/26 04:36:17;;;;;;;6.82;3.45;;;;;;;16.55;76.26;98352.44;4203835;28;20350;-72
2022/07/26 04:38:18;;;;;;;4.30;3.03;;;;;;;16.57;76.49;98352.81;4204166;28;20273;-72
2022/07/26 04:40:20;;;;;;;3.67;2.67;;;;;;;16.58;76.77;98352.38;4204810;28;20044;-72
2022/07/26 04:42:20;;;;;;;6.30;3.10;;;;;;;16.63;76.19;98347.53;4203302;28;20055;-72
2022/07/26 04:44:21;;;;;;;4.88;3.10;;;;;;;16.67;76.67;98353.88;4192105;28;20509;-72
2022/07/26 04:46:21;;;;;;;5.30;2.83;;;;;;;16.71;76.29;98352.63;4205476;28;20071;-73
2022/07/26 04:48:22;;;;;;;4.30;3.05;;;;;;;16.72;76.39;98364.59;4203713;28;20077;-72
2022/07/26 04:50:23;;;;;;;7.70;3.55;;;;;;;16.72;76.09;98362.59;4204078;28;20098;-72
2022/07/26 04:52:24;;;;;;;5.97;3.17;;;;;;;16.72;75.98;98362.59;4203295;28;20051;-71
2022/07/26 04:54:24;;;;;;;5.15;3.00;;;;;;;16.73;75.67;98368.97;4201866;28;20040;-71
2022/07/26 04:56:24;;;;;;;4.43;3.20;;;;;;;16.75;75.31;98361.75;4203323;28;20266;-71
2022/07/26 04:58:26;;;;;;;5.40;3.20;;;;;;;16.82;75.24;98369.22;4146958;27;20195;-71
2022/07/26 05:00:26;;;;;;;3.55;2.95;;;;;;;16.82;75.83;98367.22;4205366;28;20042;-72
2022/07/26 05:02:27;;;;;;;6.53;3.72;;;;;;;16.84;75.71;98364.78;4204560;28;20043;-72
2022/07/26 05:04:27;;;;;;;5.82;3.28;;;;;;;16.88;75.01;98370.34;4203451;28;20056;-72
2022/07/26 05:06:28;;;;;;;5.32;3.05;;;;;;;16.92;75.11;98367.47;4205141;28;20055;-72
2022/07/26 05:08:28;;;;;;;5.13;2.67;;;;;;;16.96;74.91;98379.38;4203134;28;20055;-73
2022/07/26 05:10:33;;;;;;;8.55;3.15;;;;;;;16.96;74.97;98374.56;4204441;28;20477;-72
2022/07/26 05:12:34;;;;;;;6.60;2.95;;;;;;;17.01;74.95;98376.13;4202772;28;20066;-72
2022/07/26 05:14:36;;;;;;;7.15;3.10;;;;;;;17.03;75.14;98379.28;4203586;28;20401;-71
2022/07/26 05:16:36;;;;;;;5.00;3.00;;;;;;;17.05;74.81;98368.47;4204714;28;20832;-72
2022/07/26 05:18:37;;;;;;;7.28;3.15;;;;;;;17.09;74.58;98370.00;4202227;28;20321;-72
2022/07/26 05:20:38;;;;;;;9.18;3.17;;;;;;;17.11;73.94;98375.16;4203281;28;20396;-71
2022/07/26 05:22:39;;;;;;;7.65;2.38;;;;;;;17.17;73.58;98376.25;4203114;28;20052;-72
2022/07/26 05:24:39;;;;;;;12.38;2.72;;;;;;;17.25;72.68;98383.31;4203258;28;20088;-71
2022/07/26 05:26:39;;;;;;;4.50;2.45;;;;;;;17.30;72.53;98382.03;4204452;28;20086;-71
2022/07/26 05:28:40;;;;;;;5.50;2.55;;;;;;;17.35;72.15;98378.75;4201432;28;20044;-72
2022/07/26 05:30:40;;;;;;;5.70;2.60;;;;;;;17.46;71.68;98381.34;4203847;28;20050;-71
2022/07/26 05:32:41;;;;;;;4.63;2.70;;;;;;;17.53;71.63;98386.81;4204840;28;20468;-71
2022/07/26 05:34:41;;;;;;;4.88;3.65;;;;;;;17.59;71.19;98394.28;4202976;28;20391;-71
2022/07/26 05:36:42;;;;;;;6.22;3.40;;;;;;;17.60;71.51;98386.69;4203775;28;20452;-72
2022/07/26 05:38:42;;;;;;;4.82;2.45;;;;;;;17.61;71.81;98391.06;4203378;28;20131;-72
2022/07/26 05:40:42;;;;;;;6.72;2.90;;;;;;;17.63;71.48;98388.66;4204384;28;20079;-72
2022/07/26 05:42:43;;;;;;;7.45;3.22;;;;;;;17.68;71.45;98388.16;4204073;28;20052;-72
2022/07/26 05:44:43;;;;;;;3.88;2.47;;;;;;;17.81;71.04;98393.94;4203969;28;20692;-71
2022/07/26 05:46:44;;;;;;;4.43;2.80;;;;;;;17.93;71.64;98385.69;4204255;28;20128;-71
2022/07/26 05:48:44;;;;;;;4.78;2.20;;;;;;;18.11;70.76;98390.16;4203493;28;20463;-71
2022/07/26 05:50:44;;;;;;;4.88;2.35;;;;;;;18.27;70.12;98387.41;4202405;28;20042;-71
2022/07/26 05:52:45;;;;;;;5.72;2.35;;;;;;;18.40;68.95;98384.75;4204555;28;20471;-72
2022/07/26 05:54:45;;;;;;;7.43;2.60;;;;;;;18.48;68.81;98384.16;4203321;28;20032;-72
2022/07/26 05:56:48;;;;;;;3.53;2.75;;;;;;;18.57;67.86;98385.59;4204259;28;20036;-72
2022/07/26 05:58:49;;;;;;;2.85;2.50;;;;;;;18.65;67.21;98375.81;4202570;28;20484;-71
2022/07/26 06:00:49;;;;;;;3.92;2.30;;;;;;;18.66;66.87;98374.59;4202954;28;20051;-72
2022/07/26 06:02:49;;;;;;;4.63;2.40;;;;;;;18.69;66.68;98374.50;4204368;28;20090;-72
2022/07/26 06:04:50;;;;;;;6.38;2.47;;;;;;;18.78;66.66;98371.94;4202470;28;20075;-71
2022/07/26 06:06:51;;;;;;;3.58;2.10;;;;;;;18.92;65.30;98370.78;4203140;28;20036;-72
2022/07/26 06:08:51;;;;;;;4.10;2.15;;;;;;;18.97;66.23;98375.09;4202992;28;20547;-72
2022/07/26 06:10:53;;;;;;;3.08;2.25;;;;;;;18.98;65.71;98373.88;4202629;28;20047;-72
2022/07/26 06:12:53;;;;;;;5.65;2.30;;;;;;;18.90;64.88;98381.66;4203095;28;20028;-72
2022/07/26 06:14:53;;;;;;;3.03;2.10;;;;;;;18.84;64.75;98379.81;4202331;28;20055;-72
2022/07/26 06:16:54;;;;;;;6.05;2.42;;;;;;;18.79;65.07;98381.13;4203750;28;20127;-72
2022/07/26 06:18:54;;;;;;;2.97;2.10;;;;;;;18.70;65.38;98386.50;4202472;28;20048;-72
2022/07/26 06:20:55;;;;;;;11.50;2.40;;;;;;;18.67;65.38;98376.19;4203786;28;20036;-72
2022/07/26 06:22:57;;;;;;;7.63;2.13;;;;;;;18.66;65.39;98389.41;4203791;28;20682;-72
2022/07/26 06:24:57;;;;;;;5.57;2.05;;;;;;;18.68;65.10;98381.34;4202201;28;20041;-72
2022/07/26 06:26:58;;;;;;;4.65;2.08;;;;;;;18.62;65.61;98390.66;4204185;28;20036;-72
2022/07/26 06:28:58;;;;;;;4.03;3.00;;;;;;;18.68;66.15;98391.78;4201847;28;20447;-72
2022/07/26 06:30:59;;;;;;;4.85;1.90;;;;;;;18.77;64.68;98391.97;4203472;28;20051;-72
2022/07/26 06:32:59;;;;;;;3.17;1.95;;;;;;;18.90;63.36;98381.66;4202985;28;20036;-72
2022/07/26 06:35:00;;;;;;;4.43;1.70;;;;;;;18.95;62.35;98386.75;4201930;28;20087;-72
2022/07/26 06:37:00;;;;;;;3.80;1.63;;;;;;;19.13;62.30;98388.34;4204363;28;20093;-72
2022/07/26 06:39:00;;;;;;;2.00;1.50;;;;;;;19.22;62.11;98394.91;4202910;28;20043;-72
2022/07/26 06:41:01;;;;;;;3.40;1.70;;;;;;;19.32;61.49;98387.44;4202655;28;20048;-72
2022/07/26 06:43:02;;;;;;;5.30;1.90;;;;;;;19.42;61.94;98389.19;4202657;28;20590;-72
2022/07/26 06:45:04;;;;;;;6.78;1.83;;;;;;;19.59;60.16;98395.59;4203409;28;20032;-72
2022/07/26 06:47:04;;;;;;;3.78;1.60;;;;;;;19.65;60.48;98391.03;4202089;28;20043;-72
2022/07/26 06:49:05;;;;;;;6.85;2.15;;;;;;;19.63;59.43;98396.31;4201662;28;20028;-72
2022/07/26 06:51:08;;;;;;;2.35;1.60;;;;;;;19.71;59.79;98400.50;4203150;28;20273;-72
2022/07/26 06:53:09;;;;;;;4.38;2.30;;;;;;;19.75;59.56;98395.56;4202446;28;20529;-72
2022/07/26 06:55:10;;;;;;;3.30;1.75;;;;;;;19.77;59.68;98403.56;4202908;28;20089;-72
2022/07/26 06:57:10;;;;;;;1.85;1.52;;;;;;;19.80;59.78;98400.66;4203124;28;20051;-72
2022/07/26 06:59:10;;;;;;;4.63;1.90;;;;;;;19.77;59.27;98403.56;4202628;28;20427;-72
2022/07/26 07:01:11;;;;;;;5.93;2.00;;;;;;;19.76;59.31;98401.97;4202671;28;20063;-72
2022/07/26 07:03:11;;;;;;;5.03;1.73;;;;;;;19.81;59.67;98401.44;4202796;28;20511;-72
2022/07/26 07:05:12;;;;;;;5.50;2.80;;;;;;;19.90;58.58;98393.19;4203393;28;20725;-72
2022/07/26 07:07:12;;;;;;;1.90;1.50;;;;;;;19.97;58.37;98404.22;4201665;28;20051;-72
2022/07/26 07:09:12;;;;;;;5.20;1.58;;;;;;;20.10;58.67;98401.44;4201726;28;20040;-72
2022/07/26 07:11:13;;;;;;;6.85;2.08;;;;;;;20.18;58.69;98405.63;4200730;28;20150;-73
2022/07/26 07:13:13;;;;;;;3.53;1.50;;;;;;;20.23;58.24;98393.84;4203065;28;20044;-73
2022/07/26 07:15:13;;;;;;;7.43;1.63;;;;;;;20.37;58.65;98396.25;4201891;28;20070;-73
2022/07/26 07:17:18;;;;;;;2.97;1.70;;;;;;;20.45;57.33;98394.06;4202090;28;20052;-73
2022/07/26 07:19:18;;;;;;;3.28;1.70;;;;;;;20.52;57.06;98396.66;4201580;28;20044;-72
2022/07/26 07:21:18;;;;;;;5.63;1.55;;;;;;;20.44;56.17;98393.28;4201848;28;20086;-72
2022/07/26 07:23:21;;;;;;;2.80;1.80;;;;;;;20.50;56.01;98385.06;4203376;28;20048;-72
2022/07/26 07:25:21;;;;;;;2.33;1.70;;;;;;;20.59;56.05;98395.66;4202118;28;20145;-72
2022/07/26 07:27:22;;;;;;;2.63;1.77;;;;;;;20.64;56.27;98386.66;4201775;28;20048;-71
2022/07/26 07:29:22;;;;;;;4.20;1.80;;;;;;;20.61;56.20;98385.56;4201501;28;20533;-72
2022/07/26 07:31:23;;;;;;;5.00;1.75;;;;;;;20.63;55.96;98387.91;4202361;28;20505;-72
2022/07/26 07:33:24;;;;;;;2.22;1.50;;;;;;;20.69;55.83;98389.72;4201785;28;20355;-72
2022/07/26 07:35:24;;;;;;;2.97;1.95;;;;;;;20.74;55.18;98391.16;4200362;28;20086;-72
2022/07/26 07:37:24;;;;;;;2.63;1.67;;;;;;;20.78;55.79;98388.25;4202544;28;20454;-72
2022/07/26 07:39:25;;;;;;;4.55;1.80;;;;;;;20.85;55.21;98383.22;4200867;28;20151;-72
2022/07/26 07:41:25;;;;;;;2.25;1.70;;;;;;;20.94;54.81;98388.16;4200671;28;20072;-72
2022/07/26 07:43:25;;;;;;;4.68;2.00;;;;;;;21.05;54.61;98382.97;4201991;28;20048;-72
2022/07/26 07:45:26;;;;;;;3.55;1.75;;;;;;;21.09;54.32;98383.63;4201505;28;20109;-72
2022/07/26 07:47:26;;;;;;;4.82;1.70;;;;;;;21.18;54.60;98391.38;4202674;28;20127;-72
2022/07/26 07:49:26;;;;;;;3.38;1.42;;;;;;;21.22;53.20;98387.22;4200833;28;20066;-72
2022/07/26 07:51:27;;;;;;;5.75;1.85;;;;;;;21.31;53.16;98381.72;4202027;28;20090;-72
2022/07/26 07:53:28;;;;;;;5.93;1.60;;;;;;;21.36;53.23;98380.38;4201558;28;20396;-72
2022/07/26 07:55:28;;;;;;;4.68;1.80;;;;;;;21.39;53.31;98384.31;4201423;28;20175;-72
2022/07/26 07:57:29;;;;;;;6.78;2.58;;;;;;;21.40;52.42;98380.25;4202712;28;20506;-72
2022/07/26 07:59:29;;;;;;;3.60;1.60;;;;;;;21.50;52.75;98387.53;4200424;28;20059;-72
2022/07/26 08:01:29;;;;;;;1.95;1.58;;;;;;;21.50;52.38;98374.25;4202799;28;20278;-72
2022/07/26 08:03:30;;;;;;;4.05;1.70;;;;;;;21.57;52.48;98387.28;4201133;28;20061;-72
2022/07/26 08:05:30;;;;;;;3.80;1.60;;;;;;;21.60;52.44;98377.97;4203166;28;20056;-72
2022/07/26 08:07:30;;;;;;;4.53;2.00;;;;;;;21.62;51.83;98364.22;4204221;28;20044;-72
2022/07/26 08:09:31;;;;;;;2.88;1.63;;;;;;;21.75;52.00;98369.78;4204164;28;20435;-72
2022/07/26 08:11:32;;;;;;;2.53;1.40;;;;;;;21.91;51.95;98375.25;4199464;28;20047;-72
2022/07/26 08:13:32;;;;;;;2.22;1.58;;;;;;;22.08;51.11;98389.94;4203546;28;20050;-72
2022/07/26 08:15:33;;;;;;;3.70;1.80;;;;;;;21.99;49.17;98395.50;4204389;28;20117;-72
2022/07/26 08:17:34;;;;;;;4.35;1.63;;;;;;;21.57;51.37;98392.94;4204784;28;20040;-72
2022/07/26 08:19:35;;;;;;;3.47;1.70;;;;;;;21.53;50.41;98398.69;4204504;28;20550;-72
2022/07/26 08:21:35;;;;;;;2.75;1.80;;;;;;;21.38;50.98;98383.53;4206375;28;20036;-72
2022/07/26 08:23:35;;;;;;;2.17;1.60;;;;;;;21.37;51.21;98386.78;4204611;28;20067;-72
2022/07/26 08:25:36;;;;;;;1.85;1.42;;;;;;;21.26;50.50;98387.09;4197215;28;20048;-72
2022/07/26 08:27:36;;;;;;;2.40;1.40;;;;;;;21.38;50.21;98385.56;4205073;28;20044;-72
2022/07/26 08:29:37;;;;;;;2.33;1.38;;;;;;;21.58;50.94;98389.66;4203859;28;20360;-72
2022/07/26 08:31:37;;;;;;;2.03;1.60;;;;;;;21.91;49.56;98389.31;4203926;28;20052;-72
2022/07/26 08:33:38;;;;;;;3.05;1.83;;;;;;;22.12;49.00;98394.22;4205288;28;20048;-72
2022/07/26 08:35:38;;;;;;;3.10;1.42;;;;;;;22.31;48.67;98394.34;4204672;28;20484;-73
2022/07/26 08:37:38;;;;;;;3.47;1.55;;;;;;;22.48;48.10;98395.72;4206367;28;20052;-73
2022/07/26 08:39:39;;;;;;;2.97;1.40;;;;;;;22.51;47.18;98396.81;4203805;28;20047;-72
2022/07/26 08:41:40;;;;;;;2.63;1.60;;;;;;;22.58;48.38;98399.38;4204946;28;20044;-72
2022/07/26 08:43:40;;;;;;;1.92;1.40;;;;;;;22.64;47.73;98386.25;4204114;28;20047;-73
2022/07/26 08:45:41;;;;;;;3.50;1.55;;;;;;;22.69;46.61;98386.44;4205186;28;20039;-73
2022/07/26 08:47:41;;;;;;;4.43;1.90;;;;;;;22.64;47.22;98397.53;4204742;28;20577;-72
2022/07/26 08:49:42;;;;;;;1.65;1.50;;;;;;;22.70;46.96;98395.69;4203889;28;20032;-72
2022/07/26 08:51:43;;;;;;;2.55;1.60;;;;;;;22.75;47.55;98397.91;4203262;28;20570;-72
2022/07/26 08:53:44;;;;;;;1.98;1.50;;;;;;;22.73;45.60;98403.22;4205523;28;20070;-72
2022/07/26 08:55:44;;;;;;;3.33;1.27;;;;;;;22.58;46.05;98397.34;4205000;28;20406;-72
2022/07/26 08:57:45;;;;;;;4.18;1.70;;;;;;;22.51;46.35;98408.09;4204948;28;20044;-72
2022/07/26 09:00:17;;;;;;;2.35;1.50;;;;;;;22.39;47.19;98395.66;4202987;28;20786;-72
2022/07/26 09:02:18;;;;;;;2.65;1.50;;;;;;;22.52;46.90;98413.31;4202643;28;20518;-72
2022/07/26 09:04:24;;;;;;;2.35;1.50;;;;;;;22.72;47.15;98415.75;4203537;28;20111;-72
2022/07/26 09:06:25;;;;;;;2.63;1.40;;;;;;;22.89;45.55;98405.06;4204606;28;20279;-73
2022/07/26 09:08:28;;;;;;;2.65;1.20;;;;;;;22.83;45.01;98410.47;4203995;28;20392;-72
2022/07/26 09:10:33;;;;;;;1.80;1.50;;;;;;;22.99;44.88;98413.09;4204130;28;20048;-72
2022/07/26 09:12:33;;;;;;;2.28;1.05;;;;;;;23.16;44.93;98407.97;4203983;28;20048;-72
2022/07/26 09:14:36;;;;;;;2.50;1.33;;;;;;;23.39;45.09;98411.50;4204127;28;20446;-72
2022/07/26 09:16:37;;;;;;;1.50;1.30;;;;;;;23.59;43.84;98408.28;4202901;28;20596;-72
2022/07/26 09:18:38;;;;;;;1.30;1.20;;;;;;;23.70;43.48;98406.59;4204124;28;20086;-71
2022/07/26 09:20:45;;;;;;;4.25;1.30;;;;;;;23.80;41.71;98408.16;4203324;28;20270;-72
2022/07/26 09:22:59;;;;;;;2.47;1.13;;;;;;;23.90;41.75;98403.31;4204230;28;20102;-72
2022/07/26 09:24:59;;;;;;;1.65;1.10;;;;;;;23.71;42.08;98413.81;4203965;28;20035;-72
2022/07/26 09:27:02;;;;;;;2.88;1.20;;;;;;;23.74;42.59;98412.06;4204027;28;20439;-71
2022/07/26 09:29:08;;;;;;;2.53;1.40;;;;;;;23.21;43.81;98415.84;4202398;28;20497;-71
2022/07/26 09:31:08;;;;;;;2.47;1.20;;;;;;;23.37;44.12;98414.81;4203362;28;20384;-71